sensor_id;sensor_type;location;lat;lon;timestamp;P1;durP1;ratioP1;P2;durP2;ratioP2
22429;SDS011;11382;48.086;11.632;2023-08-24T00:00:59;11.77;;;8.35;;
22429;SDS011;11382;48.086;11.632;2023-08-24T00:03:27;10.73;;;7.85;;
22429;SDS011;11382;48.086;11.632;2023-08-24T00:05:55;12.13;;;8.85;;
22429;SDS011;11382;48.086;11.632;2023-08-24T00:08:23;13.38;;;7.97;;
22429;SDS011;11382;48.086;11.632;2023-08-24T00:10:52;9.60;;;8.60;;
22429;SDS011;11382;48.086;11.632;2023-08-24T00:13:20;10.55;;;8.68;;
22429;SDS011;11382;48.086;11.632;2023-08-24T00:15:48;11.02;;;9.27;;
22429;SDS011;11382;48.086;11.632;2023-08-24T00:18:16;10.15;;;8.40;;
22429;SDS011;11382;48.086;11.632;2023-08-24T00:20:45;11.80;;;9.40;;
22429;SDS011;11382;48.086;11.632;2023-08-24T00:23:14;11.70;;;9.18;;
22429;SDS011;11382;48.086;11.632;2023-08-24T00:25:42;12.90;;;9.30;;
22429;SDS011;11382;48.086;11.632;2023-08-24T00:28:11;11.38;;;8.43;;
22429;SDS011;11382;48.086;11.632;2023-08-24T00:30:39;13.80;;;9.50;;
22429;SDS011;11382;48.086;11.632;2023-08-24T00:33:07;13.32;;;10.27;;
22429;SDS011;11382;48.086;11.632;2023-08-24T00:35:35;13.00;;;10.30;;
22429;SDS011;11382;48.086;11.632;2023-08-24T00:38:03;12.13;;;10.82;;
22429;SDS011;11382;48.086;11.632;2023-08-24T00:40:32;12.07;;;10.23;;
22429;SDS011;11382;48.086;11.632;2023-08-24T00:43:00;15.68;;;10.73;;
22429;SDS011;11382;48.086;11.632;2023-08-24T00:45:30;13.77;;;11.30;;
22429;SDS011;11382;48.086;11.632;2023-08-24T00:48:00;20.05;;;11.27;;
22429;SDS011;11382;48.086;11.632;2023-08-24T00:50:29;12.75;;;10.93;;
22429;SDS011;11382;48.086;11.632;2023-08-24T00:52:57;15.15;;;11.18;;
22429;SDS011;11382;48.086;11.632;2023-08-24T00:55:26;16.38;;;11.52;;
22429;SDS011;11382;48.086;11.632;2023-08-24T00:57:54;15.30;;;11.27;;
22429;SDS011;11382;48.086;11.632;2023-08-24T01:00:25;13.23;;;10.82;;
22429;SDS011;11382;48.086;11.632;2023-08-24T01:02:54;14.52;;;11.82;;
22429;SDS011;11382;48.086;11.632;2023-08-24T01:05:23;13.48;;;11.77;;
22429;SDS011;11382;48.086;11.632;2023-08-24T01:07:51;12.77;;;11.30;;
22429;SDS011;11382;48.086;11.632;2023-08-24T01:10:20;14.77;;;11.60;;
22429;SDS011;11382;48.086;11.632;2023-08-24T01:12:51;11.73;;;9.77;;
22429;SDS011;11382;48.086;11.632;2023-08-24T01:15:29;11.98;;;10.27;;
22429;SDS011;11382;48.086;11.632;2023-08-24T01:18:08;12.73;;;11.43;;
22429;SDS011;11382;48.086;11.632;2023-08-24T01:20:40;12.20;;;10.68;;
22429;SDS011;11382;48.086;11.632;2023-08-24T01:23:14;12.52;;;10.57;;
22429;SDS011;11382;48.086;11.632;2023-08-24T01:25:51;11.63;;;10.43;;
22429;SDS011;11382;48.086;11.632;2023-08-24T01:28:22;12.65;;;11.35;;
22429;SDS011;11382;48.086;11.632;2023-08-24T01:30:50;13.63;;;11.05;;
22429;SDS011;11382;48.086;11.632;2023-08-24T01:33:18;17.05;;;11.98;;
22429;SDS011;11382;48.086;11.632;2023-08-24T01:35:46;16.30;;;11.95;;
22429;SDS011;11382;48.086;11.632;2023-08-24T01:38:14;14.18;;;12.32;;
22429;SDS011;11382;48.086;11.632;2023-08-24T01:40:46;13.02;;;11.32;;
22429;SDS011;11382;48.086;11.632;2023-08-24T01:43:21;12.90;;;11.52;;
22429;SDS011;11382;48.086;11.632;2023-08-24T01:46:09;16.63;;;11.88;;
22429;SDS011;11382;48.086;11.632;2023-08-24T01:48:42;13.15;;;11.32;;
22429;SDS011;11382;48.086;11.632;2023-08-24T01:51:11;13.00;;;11.70;;
22429;SDS011;11382;48.086;11.632;2023-08-24T01:53:39;14.00;;;11.60;;
22429;SDS011;11382;48.086;11.632;2023-08-24T01:56:09;15.50;;;11.55;;
22429;SDS011;11382;48.086;11.632;2023-08-24T01:58:39;12.95;;;11.55;;
22429;SDS011;11382;48.086;11.632;2023-08-24T02:01:07;16.30;;;11.85;;
22429;SDS011;11382;48.086;11.632;2023-08-24T02:03:37;13.40;;;11.30;;
22429;SDS011;11382;48.086;11.632;2023-08-24T02:06:07;13.43;;;11.25;;
22429;SDS011;11382;48.086;11.632;2023-08-24T02:08:34;13.65;;;11.18;;
22429;SDS011;11382;48.086;11.632;2023-08-24T02:11:04;12.77;;;11.40;;
22429;SDS011;11382;48.086;11.632;2023-08-24T02:13:33;12.52;;;11.27;;
22429;SDS011;11382;48.086;11.632;2023-08-24T02:16:03;14.35;;;11.68;;
22429;SDS011;11382;48.086;11.632;2023-08-24T02:18:31;13.30;;;11.05;;
22429;SDS011;11382;48.086;11.632;2023-08-24T02:21:00;13.73;;;11.25;;
22429;SDS011;11382;48.086;11.632;2023-08-24T02:23:34;12.18;;;10.90;;
22429;SDS011;11382;48.086;11.632;2023-08-24T02:26:01;12.35;;;11.05;;
22429;SDS011;11382;48.086;11.632;2023-08-24T02:28:30;15.90;;;12.10;;
22429;SDS011;11382;48.086;11.632;2023-08-24T02:30:59;12.68;;;11.13;;
22429;SDS011;11382;48.086;11.632;2023-08-24T02:33:29;12.20;;;11.00;;
22429;SDS011;11382;48.086;11.632;2023-08-24T02:35:57;15.38;;;12.55;;
22429;SDS011;11382;48.086;11.632;2023-08-24T02:38:25;14.20;;;11.52;;
22429;SDS011;11382;48.086;11.632;2023-08-24T02:41:02;15.43;;;12.82;;
22429;SDS011;11382;48.086;11.632;2023-08-24T02:43:31;14.77;;;12.50;;
22429;SDS011;11382;48.086;11.632;2023-08-24T02:45:59;15.18;;;12.25;;
22429;SDS011;11382;48.086;11.632;2023-08-24T02:48:31;14.95;;;11.85;;
22429;SDS011;11382;48.086;11.632;2023-08-24T02:51:01;13.82;;;12.07;;
22429;SDS011;11382;48.086;11.632;2023-08-24T02:53:31;18.33;;;13.40;;
22429;SDS011;11382;48.086;11.632;2023-08-24T02:55:59;16.20;;;13.93;;
22429;SDS011;11382;48.086;11.632;2023-08-24T02:58:28;20.33;;;13.65;;
22429;SDS011;11382;48.086;11.632;2023-08-24T03:00:56;15.80;;;12.57;;
22429;SDS011;11382;48.086;11.632;2023-08-24T03:03:24;16.08;;;13.32;;
22429;SDS011;11382;48.086;11.632;2023-08-24T03:05:57;17.45;;;13.50;;
22429;SDS011;11382;48.086;11.632;2023-08-24T03:08:27;20.93;;;14.97;;
22429;SDS011;11382;48.086;11.632;2023-08-24T03:10:56;17.80;;;13.57;;
22429;SDS011;11382;48.086;11.632;2023-08-24T03:13:25;17.08;;;13.95;;
22429;SDS011;11382;48.086;11.632;2023-08-24T03:15:53;15.02;;;13.38;;
22429;SDS011;11382;48.086;11.632;2023-08-24T03:18:26;14.40;;;12.70;;
22429;SDS011;11382;48.086;11.632;2023-08-24T03:20:55;13.77;;;12.23;;
22429;SDS011;11382;48.086;11.632;2023-08-24T03:23:24;14.13;;;12.63;;
22429;SDS011;11382;48.086;11.632;2023-08-24T03:25:52;14.27;;;11.32;;
22429;SDS011;11382;48.086;11.632;2023-08-24T03:28:23;13.90;;;11.98;;
22429;SDS011;11382;48.086;11.632;2023-08-24T03:30:51;13.95;;;11.60;;
22429;SDS011;11382;48.086;11.632;2023-08-24T03:33:22;16.33;;;12.63;;
22429;SDS011;11382;48.086;11.632;2023-08-24T03:35:50;15.60;;;11.90;;
22429;SDS011;11382;48.086;11.632;2023-08-24T03:38:20;13.18;;;11.32;;
22429;SDS011;11382;48.086;11.632;2023-08-24T03:40:50;14.10;;;11.50;;
22429;SDS011;11382;48.086;11.632;2023-08-24T03:43:18;12.65;;;11.27;;
22429;SDS011;11382;48.086;11.632;2023-08-24T03:45:46;14.63;;;11.40;;
22429;SDS011;11382;48.086;11.632;2023-08-24T03:48:14;14.65;;;12.35;;
22429;SDS011;11382;48.086;11.632;2023-08-24T03:50:42;14.13;;;12.43;;
22429;SDS011;11382;48.086;11.632;2023-08-24T03:53:12;15.68;;;11.50;;
22429;SDS011;11382;48.086;11.632;2023-08-24T03:55:41;14.10;;;11.98;;
22429;SDS011;11382;48.086;11.632;2023-08-24T03:58:09;12.55;;;11.25;;
22429;SDS011;11382;48.086;11.632;2023-08-24T04:00:37;16.02;;;11.80;;
22429;SDS011;11382;48.086;11.632;2023-08-24T04:03:06;13.93;;;11.32;;
22429;SDS011;11382;48.086;11.632;2023-08-24T04:05:34;16.33;;;11.75;;
22429;SDS011;11382;48.086;11.632;2023-08-24T04:08:02;14.07;;;11.45;;
22429;SDS011;11382;48.086;11.632;2023-08-24T04:10:30;15.68;;;12.20;;
22429;SDS011;11382;48.086;11.632;2023-08-24T04:13:00;14.25;;;11.15;;
22429;SDS011;11382;48.086;11.632;2023-08-24T04:15:28;12.65;;;11.27;;
22429;SDS011;11382;48.086;11.632;2023-08-24T04:17:57;13.65;;;11.68;;
22429;SDS011;11382;48.086;11.632;2023-08-24T04:20:25;12.65;;;11.35;;
22429;SDS011;11382;48.086;11.632;2023-08-24T04:22:54;12.82;;;11.50;;
22429;SDS011;11382;48.086;11.632;2023-08-24T04:25:22;12.75;;;11.52;;
22429;SDS011;11382;48.086;11.632;2023-08-24T04:27:50;14.27;;;11.35;;
22429;SDS011;11382;48.086;11.632;2023-08-24T04:30:20;14.50;;;12.05;;
22429;SDS011;11382;48.086;11.632;2023-08-24T04:32:48;12.52;;;10.93;;
22429;SDS011;11382;48.086;11.632;2023-08-24T04:35:17;16.55;;;10.82;;
22429;SDS011;11382;48.086;11.632;2023-08-24T04:37:45;13.55;;;10.50;;
22429;SDS011;11382;48.086;11.632;2023-08-24T04:40:13;12.75;;;11.13;;
22429;SDS011;11382;48.086;11.632;2023-08-24T04:42:41;13.88;;;11.95;;
22429;SDS011;11382;48.086;11.632;2023-08-24T04:45:09;13.80;;;11.40;;
22429;SDS011;11382;48.086;11.632;2023-08-24T04:47:38;13.82;;;10.60;;
22429;SDS011;11382;48.086;11.632;2023-08-24T04:50:07;14.38;;;11.82;;
22429;SDS011;11382;48.086;11.632;2023-08-24T04:52:35;12.63;;;11.23;;
22429;SDS011;11382;48.086;11.632;2023-08-24T04:55:04;13.70;;;11.40;;
22429;SDS011;11382;48.086;11.632;2023-08-24T04:57:32;14.13;;;11.82;;
22429;SDS011;11382;48.086;11.632;2023-08-24T05:00:00;11.82;;;10.60;;
22429;SDS011;11382;48.086;11.632;2023-08-24T05:02:29;12.38;;;11.07;;
22429;SDS011;11382;48.086;11.632;2023-08-24T05:04:58;13.65;;;10.95;;
22429;SDS011;11382;48.086;11.632;2023-08-24T05:07:26;12.25;;;10.93;;
22429;SDS011;11382;48.086;11.632;2023-08-24T05:09:54;15.32;;;11.10;;
22429;SDS011;11382;48.086;11.632;2023-08-24T05:12:22;12.48;;;10.75;;
22429;SDS011;11382;48.086;11.632;2023-08-24T05:14:50;13.65;;;11.30;;
22429;SDS011;11382;48.086;11.632;2023-08-24T05:17:18;14.63;;;10.93;;
22429;SDS011;11382;48.086;11.632;2023-08-24T05:19:50;11.63;;;10.27;;
22429;SDS011;11382;48.086;11.632;2023-08-24T05:22:21;12.60;;;11.30;;
22429;SDS011;11382;48.086;11.632;2023-08-24T05:24:49;14.75;;;10.85;;
22429;SDS011;11382;48.086;11.632;2023-08-24T05:27:17;14.70;;;11.00;;
22429;SDS011;11382;48.086;11.632;2023-08-24T05:29:45;13.70;;;10.73;;
22429;SDS011;11382;48.086;11.632;2023-08-24T05:32:13;12.43;;;10.38;;
22429;SDS011;11382;48.086;11.632;2023-08-24T05:34:41;11.15;;;10.05;;
22429;SDS011;11382;48.086;11.632;2023-08-24T05:37:09;12.30;;;10.02;;
22429;SDS011;11382;48.086;11.632;2023-08-24T05:39:38;11.20;;;10.10;;
22429;SDS011;11382;48.086;11.632;2023-08-24T05:42:06;11.15;;;9.63;;
22429;SDS011;11382;48.086;11.632;2023-08-24T05:44:35;13.10;;;9.85;;
22429;SDS011;11382;48.086;11.632;2023-08-24T05:47:03;11.43;;;10.02;;
22429;SDS011;11382;48.086;11.632;2023-08-24T05:49:31;12.32;;;9.82;;
22429;SDS011;11382;48.086;11.632;2023-08-24T05:51:59;14.68;;;10.95;;
22429;SDS011;11382;48.086;11.632;2023-08-24T05:54:27;11.15;;;9.90;;
22429;SDS011;11382;48.086;11.632;2023-08-24T05:56:56;11.45;;;10.25;;
22429;SDS011;11382;48.086;11.632;2023-08-24T05:59:27;11.95;;;10.73;;
22429;SDS011;11382;48.086;11.632;2023-08-24T06:01:55;12.73;;;11.50;;
22429;SDS011;11382;48.086;11.632;2023-08-24T06:04:23;12.57;;;10.90;;
22429;SDS011;11382;48.086;11.632;2023-08-24T06:06:51;12.43;;;11.10;;
22429;SDS011;11382;48.086;11.632;2023-08-24T06:09:19;13.30;;;10.73;;
22429;SDS011;11382;48.086;11.632;2023-08-24T06:11:47;13.10;;;10.43;;
22429;SDS011;11382;48.086;11.632;2023-08-24T06:14:17;11.55;;;9.40;;
22429;SDS011;11382;48.086;11.632;2023-08-24T06:16:45;15.35;;;11.00;;
22429;SDS011;11382;48.086;11.632;2023-08-24T06:19:15;13.38;;;10.57;;
22429;SDS011;11382;48.086;11.632;2023-08-24T06:21:43;14.48;;;10.98;;
22429;SDS011;11382;48.086;11.632;2023-08-24T06:24:10;13.68;;;11.48;;
22429;SDS011;11382;48.086;11.632;2023-08-24T06:26:38;12.75;;;10.48;;
22429;SDS011;11382;48.086;11.632;2023-08-24T06:29:06;14.20;;;11.55;;
22429;SDS011;11382;48.086;11.632;2023-08-24T06:31:36;12.65;;;10.10;;
22429;SDS011;11382;48.086;11.632;2023-08-24T06:34:04;11.60;;;9.82;;
22429;SDS011;11382;48.086;11.632;2023-08-24T06:36:32;10.80;;;9.70;;
22429;SDS011;11382;48.086;11.632;2023-08-24T06:39:00;13.77;;;9.75;;
22429;SDS011;11382;48.086;11.632;2023-08-24T06:41:32;15.15;;;9.73;;
22429;SDS011;11382;48.086;11.632;2023-08-24T06:44:06;13.05;;;9.43;;
22429;SDS011;11382;48.086;11.632;2023-08-24T06:46:34;10.95;;;9.70;;
22429;SDS011;11382;48.086;11.632;2023-08-24T06:49:03;10.20;;;8.88;;
22429;SDS011;11382;48.086;11.632;2023-08-24T06:51:31;10.57;;;9.25;;
22429;SDS011;11382;48.086;11.632;2023-08-24T06:53:59;10.00;;;8.75;;
22429;SDS011;11382;48.086;11.632;2023-08-24T06:56:27;13.85;;;9.65;;
22429;SDS011;11382;48.086;11.632;2023-08-24T06:58:55;9.68;;;8.68;;
22429;SDS011;11382;48.086;11.632;2023-08-24T07:01:23;10.93;;;8.93;;
22429;SDS011;11382;48.086;11.632;2023-08-24T07:03:53;9.65;;;8.65;;
22429;SDS011;11382;48.086;11.632;2023-08-24T07:06:21;12.35;;;8.88;;
22429;SDS011;11382;48.086;11.632;2023-08-24T07:08:49;12.07;;;8.75;;
22429;SDS011;11382;48.086;11.632;2023-08-24T07:11:17;9.93;;;8.35;;
22429;SDS011;11382;48.086;11.632;2023-08-24T07:13:46;10.32;;;7.80;;
22429;SDS011;11382;48.086;11.632;2023-08-24T07:16:16;10.77;;;8.10;;
22429;SDS011;11382;48.086;11.632;2023-08-24T07:18:44;10.35;;;7.70;;
22429;SDS011;11382;48.086;11.632;2023-08-24T07:21:14;9.63;;;8.15;;
22429;SDS011;11382;48.086;11.632;2023-08-24T07:23:43;8.43;;;7.32;;
22429;SDS011;11382;48.086;11.632;2023-08-24T07:26:12;9.23;;;7.85;;
22429;SDS011;11382;48.086;11.632;2023-08-24T07:28:40;9.40;;;7.68;;
22429;SDS011;11382;48.086;11.632;2023-08-24T07:31:08;7.90;;;7.10;;
22429;SDS011;11382;48.086;11.632;2023-08-24T07:33:37;10.00;;;7.25;;
22429;SDS011;11382;48.086;11.632;2023-08-24T07:36:05;8.02;;;7.22;;
22429;SDS011;11382;48.086;11.632;2023-08-24T07:38:35;8.95;;;7.57;;
22429;SDS011;11382;48.086;11.632;2023-08-24T07:41:03;10.13;;;7.20;;
22429;SDS011;11382;48.086;11.632;2023-08-24T07:43:32;12.65;;;7.05;;
22429;SDS011;11382;48.086;11.632;2023-08-24T07:46:01;7.70;;;6.85;;
22429;SDS011;11382;48.086;11.632;2023-08-24T07:48:33;7.95;;;7.10;;
22429;SDS011;11382;48.086;11.632;2023-08-24T07:51:01;10.13;;;7.13;;
22429;SDS011;11382;48.086;11.632;2023-08-24T07:53:29;8.13;;;6.85;;
22429;SDS011;11382;48.086;11.632;2023-08-24T07:56:01;8.85;;;6.90;;
22429;SDS011;11382;48.086;11.632;2023-08-24T07:58:29;9.68;;;7.32;;
22429;SDS011;11382;48.086;11.632;2023-08-24T08:00:58;7.93;;;7.07;;
22429;SDS011;11382;48.086;11.632;2023-08-24T08:03:26;8.93;;;7.40;;
22429;SDS011;11382;48.086;11.632;2023-08-24T08:05:56;7.88;;;7.07;;
22429;SDS011;11382;48.086;11.632;2023-08-24T08:08:24;8.85;;;6.88;;
22429;SDS011;11382;48.086;11.632;2023-08-24T08:10:58;8.80;;;6.65;;
22429;SDS011;11382;48.086;11.632;2023-08-24T08:13:29;10.02;;;6.85;;
22429;SDS011;11382;48.086;11.632;2023-08-24T08:16:01;7.78;;;6.90;;
22429;SDS011;11382;48.086;11.632;2023-08-24T08:18:31;7.95;;;6.50;;
22429;SDS011;11382;48.086;11.632;2023-08-24T08:21:00;10.27;;;7.00;;
22429;SDS011;11382;48.086;11.632;2023-08-24T08:23:28;10.65;;;6.82;;
22429;SDS011;11382;48.086;11.632;2023-08-24T08:25:56;7.97;;;6.85;;
22429;SDS011;11382;48.086;11.632;2023-08-24T08:28:26;8.95;;;6.90;;
22429;SDS011;11382;48.086;11.632;2023-08-24T08:30:54;10.68;;;6.35;;
22429;SDS011;11382;48.086;11.632;2023-08-24T08:33:22;8.07;;;6.60;;
22429;SDS011;11382;48.086;11.632;2023-08-24T08:35:50;11.55;;;5.95;;
22429;SDS011;11382;48.086;11.632;2023-08-24T08:38:18;6.97;;;6.13;;
22429;SDS011;11382;48.086;11.632;2023-08-24T08:40:48;9.30;;;6.90;;
22429;SDS011;11382;48.086;11.632;2023-08-24T08:43:17;7.35;;;6.35;;
22429;SDS011;11382;48.086;11.632;2023-08-24T08:45:47;8.10;;;6.85;;
22429;SDS011;11382;48.086;11.632;2023-08-24T08:48:17;7.13;;;5.82;;
22429;SDS011;11382;48.086;11.632;2023-08-24T08:50:46;9.48;;;6.45;;
22429;SDS011;11382;48.086;11.632;2023-08-24T08:53:16;8.35;;;6.72;;
22429;SDS011;11382;48.086;11.632;2023-08-24T08:55:44;7.68;;;6.40;;
22429;SDS011;11382;48.086;11.632;2023-08-24T08:58:13;8.23;;;6.50;;
22429;SDS011;11382;48.086;11.632;2023-08-24T09:00:41;12.50;;;6.20;;
22429;SDS011;11382;48.086;11.632;2023-08-24T09:03:11;7.28;;;6.35;;
22429;SDS011;11382;48.086;11.632;2023-08-24T09:05:40;8.07;;;6.27;;
22429;SDS011;11382;48.086;11.632;2023-08-24T09:08:09;8.40;;;5.60;;
22429;SDS011;11382;48.086;11.632;2023-08-24T09:10:37;11.07;;;6.78;;
22429;SDS011;11382;48.086;11.632;2023-08-24T09:13:05;8.85;;;6.28;;
22429;SDS011;11382;48.086;11.632;2023-08-24T09:15:34;8.32;;;6.13;;
22429;SDS011;11382;48.086;11.632;2023-08-24T09:18:02;8.85;;;5.72;;
22429;SDS011;11382;48.086;11.632;2023-08-24T09:20:33;9.50;;;6.13;;
22429;SDS011;11382;48.086;11.632;2023-08-24T09:23:01;6.57;;;5.90;;
22429;SDS011;11382;48.086;11.632;2023-08-24T09:25:32;7.45;;;5.85;;
22429;SDS011;11382;48.086;11.632;2023-08-24T09:28:01;7.15;;;5.97;;
22429;SDS011;11382;48.086;11.632;2023-08-24T09:30:34;7.40;;;6.25;;
22429;SDS011;11382;48.086;11.632;2023-08-24T09:33:04;7.30;;;6.15;;
22429;SDS011;11382;48.086;11.632;2023-08-24T09:35:38;8.90;;;6.13;;
22429;SDS011;11382;48.086;11.632;2023-08-24T09:38:16;9.52;;;6.38;;
22429;SDS011;11382;48.086;11.632;2023-08-24T09:40:45;7.20;;;6.40;;
22429;SDS011;11382;48.086;11.632;2023-08-24T09:43:15;6.50;;;5.85;;
22429;SDS011;11382;48.086;11.632;2023-08-24T09:45:49;9.43;;;6.20;;
22429;SDS011;11382;48.086;11.632;2023-08-24T09:48:18;9.07;;;6.28;;
22429;SDS011;11382;48.086;11.632;2023-08-24T09:50:48;8.80;;;6.40;;
22429;SDS011;11382;48.086;11.632;2023-08-24T09:53:18;7.22;;;6.50;;
22429;SDS011;11382;48.086;11.632;2023-08-24T09:55:49;7.43;;;6.55;;
22429;SDS011;11382;48.086;11.632;2023-08-24T09:58:21;8.00;;;6.13;;
22429;SDS011;11382;48.086;11.632;2023-08-24T10:00:50;8.38;;;5.88;;
22429;SDS011;11382;48.086;11.632;2023-08-24T10:03:19;8.20;;;6.13;;
22429;SDS011;11382;48.086;11.632;2023-08-24T10:05:50;7.03;;;5.63;;
22429;SDS011;11382;48.086;11.632;2023-08-24T10:08:28;7.43;;;5.53;;
22429;SDS011;11382;48.086;11.632;2023-08-24T10:10:57;9.95;;;6.25;;
22429;SDS011;11382;48.086;11.632;2023-08-24T10:13:31;9.25;;;5.90;;
22429;SDS011;11382;48.086;11.632;2023-08-24T10:16:06;9.70;;;6.53;;
22429;SDS011;11382;48.086;11.632;2023-08-24T10:18:36;7.05;;;5.47;;
22429;SDS011;11382;48.086;11.632;2023-08-24T10:21:05;7.90;;;6.13;;
22429;SDS011;11382;48.086;11.632;2023-08-24T10:23:35;9.23;;;6.13;;
22429;SDS011;11382;48.086;11.632;2023-08-24T10:26:05;9.95;;;6.47;;
22429;SDS011;11382;48.086;11.632;2023-08-24T10:28:35;7.07;;;5.47;;
22429;SDS011;11382;48.086;11.632;2023-08-24T10:31:04;10.88;;;5.75;;
22429;SDS011;11382;48.086;11.632;2023-08-24T10:33:32;9.63;;;6.20;;
22429;SDS011;11382;48.086;11.632;2023-08-24T10:36:05;7.15;;;4.93;;
22429;SDS011;11382;48.086;11.632;2023-08-24T10:38:35;7.18;;;5.18;;
22429;SDS011;11382;48.086;11.632;2023-08-24T10:41:07;8.50;;;5.53;;
22429;SDS011;11382;48.086;11.632;2023-08-24T10:43:38;7.88;;;5.75;;
22429;SDS011;11382;48.086;11.632;2023-08-24T10:46:11;7.15;;;5.18;;
22429;SDS011;11382;48.086;11.632;2023-08-24T10:48:57;12.45;;;5.50;;
22429;SDS011;11382;48.086;11.632;2023-08-24T10:51:28;8.38;;;5.25;;
22429;SDS011;11382;48.086;11.632;2023-08-24T10:53:58;10.10;;;5.90;;
22429;SDS011;11382;48.086;11.632;2023-08-24T10:59:11;8.88;;;6.13;;
22429;SDS011;11382;48.086;11.632;2023-08-24T11:01:40;8.77;;;5.78;;
22429;SDS011;11382;48.086;11.632;2023-08-24T11:04:10;9.20;;;5.20;;
22429;SDS011;11382;48.086;11.632;2023-08-24T11:06:52;7.13;;;5.22;;
22429;SDS011;11382;48.086;11.632;2023-08-24T11:09:22;9.02;;;5.68;;
22429;SDS011;11382;48.086;11.632;2023-08-24T11:11:57;8.80;;;5.38;;
22429;SDS011;11382;48.086;11.632;2023-08-24T11:14:28;6.72;;;5.07;;
22429;SDS011;11382;48.086;11.632;2023-08-24T11:16:58;7.45;;;5.40;;
22429;SDS011;11382;48.086;11.632;2023-08-24T11:19:28;9.63;;;5.50;;
22429;SDS011;11382;48.086;11.632;2023-08-24T11:21:58;7.00;;;4.97;;
22429;SDS011;11382;48.086;11.632;2023-08-24T11:24:27;6.80;;;5.07;;
22429;SDS011;11382;48.086;11.632;2023-08-24T11:26:55;7.82;;;5.05;;
22429;SDS011;11382;48.086;11.632;2023-08-24T11:29:27;9.68;;;5.78;;
22429;SDS011;11382;48.086;11.632;2023-08-24T11:31:55;10.20;;;4.90;;
22429;SDS011;11382;48.086;11.632;2023-08-24T11:34:25;6.65;;;5.20;;
22429;SDS011;11382;48.086;11.632;2023-08-24T11:36:53;8.07;;;4.90;;
22429;SDS011;11382;48.086;11.632;2023-08-24T11:39:22;6.50;;;4.70;;
22429;SDS011;11382;48.086;11.632;2023-08-24T11:41:59;9.90;;;5.07;;
22429;SDS011;11382;48.086;11.632;2023-08-24T11:44:29;8.20;;;4.95;;
22429;SDS011;11382;48.086;11.632;2023-08-24T11:46:57;8.48;;;4.85;;
22429;SDS011;11382;48.086;11.632;2023-08-24T11:49:26;10.18;;;4.60;;
22429;SDS011;11382;48.086;11.632;2023-08-24T11:51:54;8.18;;;4.47;;
22429;SDS011;11382;48.086;11.632;2023-08-24T11:54:26;7.70;;;4.35;;
22429;SDS011;11382;48.086;11.632;2023-08-24T11:56:54;7.65;;;4.53;;
22429;SDS011;11382;48.086;11.632;2023-08-24T11:59:22;8.20;;;5.15;;
22429;SDS011;11382;48.086;11.632;2023-08-24T12:01:50;9.15;;;5.47;;
22429;SDS011;11382;48.086;11.632;2023-08-24T12:04:19;7.65;;;5.00;;
22429;SDS011;11382;48.086;11.632;2023-08-24T12:06:47;10.52;;;5.50;;
22429;SDS011;11382;48.086;11.632;2023-08-24T12:09:15;8.05;;;5.30;;
22429;SDS011;11382;48.086;11.632;2023-08-24T12:11:44;8.20;;;5.15;;
22429;SDS011;11382;48.086;11.632;2023-08-24T12:14:16;7.03;;;4.75;;
22429;SDS011;11382;48.086;11.632;2023-08-24T12:16:45;9.10;;;5.13;;
22429;SDS011;11382;48.086;11.632;2023-08-24T12:19:16;10.18;;;5.50;;
22429;SDS011;11382;48.086;11.632;2023-08-24T12:21:44;10.82;;;5.07;;
22429;SDS011;11382;48.086;11.632;2023-08-24T12:24:13;10.30;;;5.18;;
22429;SDS011;11382;48.086;11.632;2023-08-24T12:26:42;11.25;;;4.88;;
22429;SDS011;11382;48.086;11.632;2023-08-24T12:29:11;9.75;;;5.00;;
22429;SDS011;11382;48.086;11.632;2023-08-24T12:31:41;10.13;;;4.97;;
22429;SDS011;11382;48.086;11.632;2023-08-24T12:34:14;15.38;;;5.32;;
22429;SDS011;11382;48.086;11.632;2023-08-24T12:36:44;10.95;;;5.13;;
22429;SDS011;11382;48.086;11.632;2023-08-24T12:39:12;8.98;;;4.93;;
22429;SDS011;11382;48.086;11.632;2023-08-24T12:41:41;12.90;;;5.18;;
22429;SDS011;11382;48.086;11.632;2023-08-24T12:44:10;6.45;;;4.72;;
22429;SDS011;11382;48.086;11.632;2023-08-24T12:46:41;11.55;;;5.53;;
22429;SDS011;11382;48.086;11.632;2023-08-24T12:49:09;8.10;;;4.70;;
22429;SDS011;11382;48.086;11.632;2023-08-24T12:51:37;8.23;;;4.90;;
22429;SDS011;11382;48.086;11.632;2023-08-24T12:54:05;12.25;;;5.25;;
22429;SDS011;11382;48.086;11.632;2023-08-24T12:56:37;15.95;;;5.55;;
22429;SDS011;11382;48.086;11.632;2023-08-24T12:59:06;11.02;;;5.75;;
22429;SDS011;11382;48.086;11.632;2023-08-24T13:01:35;12.07;;;5.35;;
22429;SDS011;11382;48.086;11.632;2023-08-24T13:04:03;12.73;;;5.13;;
22429;SDS011;11382;48.086;11.632;2023-08-24T13:06:32;13.68;;;5.53;;
22429;SDS011;11382;48.086;11.632;2023-08-24T13:09:00;11.02;;;5.68;;
22429;SDS011;11382;48.086;11.632;2023-08-24T13:11:30;10.25;;;5.00;;
22429;SDS011;11382;48.086;11.632;2023-08-24T13:13:59;10.10;;;5.28;;
22429;SDS011;11382;48.086;11.632;2023-08-24T13:16:28;12.32;;;5.20;;
22429;SDS011;11382;48.086;11.632;2023-08-24T13:18:57;9.35;;;5.05;;
22429;SDS011;11382;48.086;11.632;2023-08-24T13:21:25;13.30;;;5.00;;
22429;SDS011;11382;48.086;11.632;2023-08-24T13:23:53;10.82;;;5.10;;
22429;SDS011;11382;48.086;11.632;2023-08-24T13:26:21;11.25;;;4.93;;
22429;SDS011;11382;48.086;11.632;2023-08-24T13:28:50;9.90;;;5.00;;
22429;SDS011;11382;48.086;11.632;2023-08-24T13:31:19;13.85;;;5.50;;
22429;SDS011;11382;48.086;11.632;2023-08-24T13:33:47;14.32;;;5.50;;
22429;SDS011;11382;48.086;11.632;2023-08-24T13:36:16;9.07;;;4.65;;
22429;SDS011;11382;48.086;11.632;2023-08-24T13:38:44;10.93;;;5.40;;
22429;SDS011;11382;48.086;11.632;2023-08-24T13:41:13;10.32;;;5.00;;
22429;SDS011;11382;48.086;11.632;2023-08-24T13:43:41;14.10;;;5.45;;
22429;SDS011;11382;48.086;11.632;2023-08-24T13:46:09;12.23;;;5.40;;
22429;SDS011;11382;48.086;11.632;2023-08-24T13:48:37;12.30;;;5.85;;
22429;SDS011;11382;48.086;11.632;2023-08-24T13:51:05;9.65;;;5.07;;
22429;SDS011;11382;48.086;11.632;2023-08-24T13:53:36;11.02;;;5.30;;
22429;SDS011;11382;48.086;11.632;2023-08-24T13:56:04;11.32;;;5.30;;
22429;SDS011;11382;48.086;11.632;2023-08-24T13:58:32;13.23;;;5.28;;
22429;SDS011;11382;48.086;11.632;2023-08-24T14:01:00;15.07;;;5.82;;
22429;SDS011;11382;48.086;11.632;2023-08-24T14:03:29;13.18;;;5.88;;
22429;SDS011;11382;48.086;11.632;2023-08-24T14:05:57;13.50;;;6.30;;
22429;SDS011;11382;48.086;11.632;2023-08-24T14:08:25;11.48;;;5.07;;
22429;SDS011;11382;48.086;11.632;2023-08-24T14:10:55;12.32;;;5.68;;
22429;SDS011;11382;48.086;11.632;2023-08-24T14:13:23;12.65;;;5.28;;
22429;SDS011;11382;48.086;11.632;2023-08-24T14:15:51;10.20;;;5.55;;
22429;SDS011;11382;48.086;11.632;2023-08-24T14:18:19;14.20;;;5.50;;
22429;SDS011;11382;48.086;11.632;2023-08-24T14:20:47;8.65;;;5.30;;
22429;SDS011;11382;48.086;11.632;2023-08-24T14:23:15;12.98;;;6.50;;
22429;SDS011;11382;48.086;11.632;2023-08-24T14:25:45;11.57;;;6.13;;
22429;SDS011;11382;48.086;11.632;2023-08-24T14:28:18;14.35;;;5.65;;
22429;SDS011;11382;48.086;11.632;2023-08-24T14:30:47;10.98;;;5.55;;
22429;SDS011;11382;48.086;11.632;2023-08-24T14:33:15;13.05;;;5.97;;
22429;SDS011;11382;48.086;11.632;2023-08-24T14:35:49;12.85;;;5.65;;